sensor_id;sensor_type;location;lat;lon;timestamp;P1;durP1;ratioP1;P2;durP2;ratioP2
74335;SDS011;62755;-33.398;-70.572;2023-11-25T00:01:35;19.23;;;5.35;;
74335;SDS011;62755;-33.398;-70.572;2023-11-25T00:04:04;19.15;;;4.40;;
74335;SDS011;62755;-33.398;-70.572;2023-11-25T00:06:34;24.95;;;4.90;;
74335;SDS011;62755;-33.398;-70.572;2023-11-25T00:09:05;16.77;;;5.20;;
74335;SDS011;62755;-33.398;-70.572;2023-11-25T00:11:35;23.48;;;7.63;;
74335;SDS011;62755;-33.398;-70.572;2023-11-25T00:14:05;20.88;;;5.10;;
74335;SDS011;62755;-33.398;-70.572;2023-11-25T00:16:34;20.60;;;5.25;;
74335;SDS011;62755;-33.398;-70.572;2023-11-25T00:19:04;22.40;;;6.93;;
74335;SDS011;62755;-33.398;-70.572;2023-11-25T00:21:33;29.70;;;10.60;;
74335;SDS011;62755;-33.398;-70.572;2023-11-25T00:24:04;23.92;;;7.15;;
74335;SDS011;62755;-33.398;-70.572;2023-11-25T00:26:34;17.42;;;4.88;;
74335;SDS011;62755;-33.398;-70.572;2023-11-25T00:29:04;30.15;;;10.40;;
74335;SDS011;62755;-33.398;-70.572;2023-11-25T00:31:35;28.23;;;9.32;;
74335;SDS011;62755;-33.398;-70.572;2023-11-25T00:34:04;35.53;;;7.72;;
74335;SDS011;62755;-33.398;-70.572;2023-11-25T00:36:33;26.83;;;7.30;;
74335;SDS011;62755;-33.398;-70.572;2023-11-25T00:39:04;16.42;;;4.45;;
74335;SDS011;62755;-33.398;-70.572;2023-11-25T00:41:34;13.32;;;4.00;;
74335;SDS011;62755;-33.398;-70.572;2023-11-25T00:44:04;21.00;;;4.63;;
74335;SDS011;62755;-33.398;-70.572;2023-11-25T00:46:34;27.13;;;5.63;;
74335;SDS011;62755;-33.398;-70.572;2023-11-25T00:49:04;27.40;;;7.30;;
74335;SDS011;62755;-33.398;-70.572;2023-11-25T00:51:34;27.40;;;4.65;;
74335;SDS011;62755;-33.398;-70.572;2023-11-25T00:54:05;22.05;;;7.28;;
74335;SDS011;62755;-33.398;-70.572;2023-11-25T00:56:35;32.70;;;9.52;;
74335;SDS011;62755;-33.398;-70.572;2023-11-25T00:59:04;23.48;;;6.38;;
74335;SDS011;62755;-33.398;-70.572;2023-11-25T01:01:34;23.65;;;6.20;;
74335;SDS011;62755;-33.398;-70.572;2023-11-25T01:04:03;18.98;;;5.30;;
74335;SDS011;62755;-33.398;-70.572;2023-11-25T01:06:32;20.25;;;5.35;;
74335;SDS011;62755;-33.398;-70.572;2023-11-25T01:09:02;20.88;;;7.95;;
74335;SDS011;62755;-33.398;-70.572;2023-11-25T01:11:35;14.40;;;5.50;;
74335;SDS011;62755;-33.398;-70.572;2023-11-25T01:14:05;26.05;;;5.95;;
74335;SDS011;62755;-33.398;-70.572;2023-11-25T01:16:35;23.85;;;5.13;;
74335;SDS011;62755;-33.398;-70.572;2023-11-25T01:19:04;25.90;;;7.75;;
74335;SDS011;62755;-33.398;-70.572;2023-11-25T01:21:34;30.25;;;6.32;;
74335;SDS011;62755;-33.398;-70.572;2023-11-25T01:24:03;22.65;;;7.13;;
74335;SDS011;62755;-33.398;-70.572;2023-11-25T01:26:33;21.83;;;6.25;;
74335;SDS011;62755;-33.398;-70.572;2023-11-25T01:29:04;21.42;;;5.05;;
74335;SDS011;62755;-33.398;-70.572;2023-11-25T01:31:33;19.85;;;6.72;;
74335;SDS011;62755;-33.398;-70.572;2023-11-25T01:34:03;43.42;;;15.63;;
74335;SDS011;62755;-33.398;-70.572;2023-11-25T01:36:32;25.63;;;7.20;;
74335;SDS011;62755;-33.398;-70.572;2023-11-25T01:39:02;28.63;;;7.30;;
74335;SDS011;62755;-33.398;-70.572;2023-11-25T01:41:32;43.85;;;19.80;;
74335;SDS011;62755;-33.398;-70.572;2023-11-25T01:44:03;43.42;;;18.73;;
74335;SDS011;62755;-33.398;-70.572;2023-11-25T01:46:34;23.77;;;7.93;;
74335;SDS011;62755;-33.398;-70.572;2023-11-25T01:49:05;65.22;;;32.35;;
74335;SDS011;62755;-33.398;-70.572;2023-11-25T01:51:35;91.40;;;42.92;;
74335;SDS011;62755;-33.398;-70.572;2023-11-25T01:54:06;45.22;;;19.30;;
74335;SDS011;62755;-33.398;-70.572;2023-11-25T01:56:37;40.25;;;16.67;;
74335;SDS011;62755;-33.398;-70.572;2023-11-25T01:59:08;35.60;;;12.63;;
74335;SDS011;62755;-33.398;-70.572;2023-11-25T02:01:39;24.80;;;7.22;;
74335;SDS011;62755;-33.398;-70.572;2023-11-25T02:04:09;23.10;;;6.63;;
74335;SDS011;62755;-33.398;-70.572;2023-11-25T02:06:39;19.20;;;5.95;;
74335;SDS011;62755;-33.398;-70.572;2023-11-25T02:09:08;25.35;;;6.47;;
74335;SDS011;62755;-33.398;-70.572;2023-11-25T02:14:29;31.63;;;6.38;;
74335;SDS011;62755;-33.398;-70.572;2023-11-25T02:16:58;20.92;;;5.90;;
74335;SDS011;62755;-33.398;-70.572;2023-11-25T02:19:28;22.95;;;5.32;;
74335;SDS011;62755;-33.398;-70.572;2023-11-25T02:21:57;27.45;;;5.72;;
74335;SDS011;62755;-33.398;-70.572;2023-11-25T02:24:28;21.95;;;5.55;;
74335;SDS011;62755;-33.398;-70.572;2023-11-25T02:26:59;29.13;;;5.55;;
74335;SDS011;62755;-33.398;-70.572;2023-11-25T02:29:30;27.00;;;5.60;;
74335;SDS011;62755;-33.398;-70.572;2023-11-25T02:32:01;16.90;;;4.78;;
74335;SDS011;62755;-33.398;-70.572;2023-11-25T02:34:30;21.70;;;5.57;;
74335;SDS011;62755;-33.398;-70.572;2023-11-25T02:37:00;18.67;;;5.57;;
74335;SDS011;62755;-33.398;-70.572;2023-11-25T02:39:34;30.08;;;5.93;;
74335;SDS011;62755;-33.398;-70.572;2023-11-25T02:42:03;24.58;;;5.50;;
74335;SDS011;62755;-33.398;-70.572;2023-11-25T02:44:35;23.00;;;5.32;;
74335;SDS011;62755;-33.398;-70.572;2023-11-25T02:47:04;19.55;;;4.95;;
74335;SDS011;62755;-33.398;-70.572;2023-11-25T02:49:34;25.88;;;4.97;;
74335;SDS011;62755;-33.398;-70.572;2023-11-25T02:52:03;16.90;;;4.85;;
74335;SDS011;62755;-33.398;-70.572;2023-11-25T02:54:35;17.65;;;5.32;;
74335;SDS011;62755;-33.398;-70.572;2023-11-25T02:57:05;30.92;;;5.78;;
74335;SDS011;62755;-33.398;-70.572;2023-11-25T02:59:34;24.02;;;5.07;;
74335;SDS011;62755;-33.398;-70.572;2023-11-25T03:02:05;18.98;;;4.63;;
74335;SDS011;62755;-33.398;-70.572;2023-11-25T03:04:35;17.58;;;4.82;;
74335;SDS011;62755;-33.398;-70.572;2023-11-25T03:07:10;24.53;;;5.27;;
74335;SDS011;62755;-33.398;-70.572;2023-11-25T03:09:41;25.63;;;5.50;;
74335;SDS011;62755;-33.398;-70.572;2023-11-25T03:12:11;20.30;;;5.32;;
74335;SDS011;62755;-33.398;-70.572;2023-11-25T03:14:40;15.70;;;5.60;;
74335;SDS011;62755;-33.398;-70.572;2023-11-25T03:17:09;27.52;;;6.97;;
74335;SDS011;62755;-33.398;-70.572;2023-11-25T03:19:39;21.05;;;5.55;;
74335;SDS011;62755;-33.398;-70.572;2023-11-25T03:22:08;18.38;;;5.25;;
74335;SDS011;62755;-33.398;-70.572;2023-11-25T03:24:37;21.48;;;5.75;;
74335;SDS011;62755;-33.398;-70.572;2023-11-25T03:27:09;22.63;;;6.65;;
74335;SDS011;62755;-33.398;-70.572;2023-11-25T03:29:39;27.42;;;8.18;;
74335;SDS011;62755;-33.398;-70.572;2023-11-25T03:32:08;25.48;;;8.77;;
74335;SDS011;62755;-33.398;-70.572;2023-11-25T03:34:40;25.98;;;8.48;;
74335;SDS011;62755;-33.398;-70.572;2023-11-25T03:37:10;34.03;;;12.13;;
74335;SDS011;62755;-33.398;-70.572;2023-11-25T03:39:39;36.53;;;12.10;;
74335;SDS011;62755;-33.398;-70.572;2023-11-25T03:42:10;29.50;;;9.00;;
74335;SDS011;62755;-33.398;-70.572;2023-11-25T03:44:40;24.58;;;6.07;;
74335;SDS011;62755;-33.398;-70.572;2023-11-25T03:47:09;23.27;;;5.60;;
74335;SDS011;62755;-33.398;-70.572;2023-11-25T03:49:39;20.48;;;5.57;;
74335;SDS011;62755;-33.398;-70.572;2023-11-25T03:52:08;16.88;;;5.38;;
74335;SDS011;62755;-33.398;-70.572;2023-11-25T03:54:38;23.10;;;6.28;;
74335;SDS011;62755;-33.398;-70.572;2023-11-25T03:57:07;20.27;;;5.53;;
74335;SDS011;62755;-33.398;-70.572;2023-11-25T03:59:38;22.83;;;5.20;;
74335;SDS011;62755;-33.398;-70.572;2023-11-25T04:02:08;26.63;;;9.20;;
74335;SDS011;62755;-33.398;-70.572;2023-11-25T04:04:37;30.98;;;13.65;;
74335;SDS011;62755;-33.398;-70.572;2023-11-25T04:07:07;21.83;;;5.90;;
74335;SDS011;62755;-33.398;-70.572;2023-11-25T04:09:36;21.35;;;7.88;;
74335;SDS011;62755;-33.398;-70.572;2023-11-25T04:12:06;24.48;;;7.88;;
74335;SDS011;62755;-33.398;-70.572;2023-11-25T04:14:36;28.90;;;7.03;;
74335;SDS011;62755;-33.398;-70.572;2023-11-25T04:17:07;21.60;;;6.10;;
74335;SDS011;62755;-33.398;-70.572;2023-11-25T04:19:37;24.83;;;7.45;;
74335;SDS011;62755;-33.398;-70.572;2023-11-25T04:22:07;22.15;;;7.93;;
74335;SDS011;62755;-33.398;-70.572;2023-11-25T04:24:36;20.52;;;5.22;;
74335;SDS011;62755;-33.398;-70.572;2023-11-25T04:27:06;24.00;;;5.80;;
74335;SDS011;62755;-33.398;-70.572;2023-11-25T04:29:35;25.67;;;5.32;;
74335;SDS011;62755;-33.398;-70.572;2023-11-25T04:32:06;28.35;;;6.50;;
74335;SDS011;62755;-33.398;-70.572;2023-11-25T04:34:36;25.92;;;6.25;;
74335;SDS011;62755;-33.398;-70.572;2023-11-25T04:37:05;26.75;;;5.82;;
74335;SDS011;62755;-33.398;-70.572;2023-11-25T04:39:35;28.35;;;8.48;;
74335;SDS011;62755;-33.398;-70.572;2023-11-25T04:42:04;28.13;;;10.73;;
74335;SDS011;62755;-33.398;-70.572;2023-11-25T04:44:34;35.35;;;12.45;;
74335;SDS011;62755;-33.398;-70.572;2023-11-25T04:47:04;29.90;;;10.68;;
74335;SDS011;62755;-33.398;-70.572;2023-11-25T04:49:35;28.60;;;10.13;;
74335;SDS011;62755;-33.398;-70.572;2023-11-25T04:52:05;29.48;;;9.07;;
74335;SDS011;62755;-33.398;-70.572;2023-11-25T04:54:34;19.90;;;6.18;;
74335;SDS011;62755;-33.398;-70.572;2023-11-25T04:57:04;20.60;;;5.78;;
74335;SDS011;62755;-33.398;-70.572;2023-11-25T04:59:34;27.30;;;6.38;;
74335;SDS011;62755;-33.398;-70.572;2023-11-25T05:02:03;22.30;;;5.70;;
74335;SDS011;62755;-33.398;-70.572;2023-11-25T05:04:34;21.77;;;5.38;;
74335;SDS011;62755;-33.398;-70.572;2023-11-25T05:07:04;26.52;;;6.38;;
74335;SDS011;62755;-33.398;-70.572;2023-11-25T05:09:33;20.13;;;5.55;;
74335;SDS011;62755;-33.398;-70.572;2023-11-25T05:12:04;25.13;;;5.35;;
74335;SDS011;62755;-33.398;-70.572;2023-11-25T05:14:34;23.88;;;5.95;;
74335;SDS011;62755;-33.398;-70.572;2023-11-25T05:17:04;24.73;;;5.30;;
74335;SDS011;62755;-33.398;-70.572;2023-11-25T05:19:35;23.65;;;5.97;;
74335;SDS011;62755;-33.398;-70.572;2023-11-25T05:22:05;19.80;;;5.32;;
74335;SDS011;62755;-33.398;-70.572;2023-11-25T05:24:35;21.35;;;5.00;;
74335;SDS011;62755;-33.398;-70.572;2023-11-25T05:27:04;21.65;;;6.13;;
74335;SDS011;62755;-33.398;-70.572;2023-11-25T05:29:33;30.75;;;6.05;;
74335;SDS011;62755;-33.398;-70.572;2023-11-25T05:32:03;19.23;;;5.55;;
74335;SDS011;62755;-33.398;-70.572;2023-11-25T05:34:35;25.48;;;5.43;;
74335;SDS011;62755;-33.398;-70.572;2023-11-25T05:37:06;23.90;;;6.22;;
74335;SDS011;62755;-33.398;-70.572;2023-11-25T05:39:36;22.15;;;5.30;;
74335;SDS011;62755;-33.398;-70.572;2023-11-25T05:42:06;26.13;;;5.13;;
74335;SDS011;62755;-33.398;-70.572;2023-11-25T05:44:36;21.42;;;5.82;;
74335;SDS011;62755;-33.398;-70.572;2023-11-25T05:47:05;19.70;;;5.47;;
74335;SDS011;62755;-33.398;-70.572;2023-11-25T05:49:37;23.67;;;5.20;;
74335;SDS011;62755;-33.398;-70.572;2023-11-25T05:52:09;23.65;;;5.88;;
74335;SDS011;62755;-33.398;-70.572;2023-11-25T05:54:38;22.73;;;5.72;;
74335;SDS011;62755;-33.398;-70.572;2023-11-25T05:57:09;24.83;;;6.13;;
74335;SDS011;62755;-33.398;-70.572;2023-11-25T05:59:38;28.80;;;6.18;;
74335;SDS011;62755;-33.398;-70.572;2023-11-25T06:02:08;25.63;;;5.63;;
74335;SDS011;62755;-33.398;-70.572;2023-11-25T06:04:39;21.80;;;5.75;;
74335;SDS011;62755;-33.398;-70.572;2023-11-25T06:07:08;19.45;;;5.43;;
74335;SDS011;62755;-33.398;-70.572;2023-11-25T06:09:38;27.92;;;5.70;;
74335;SDS011;62755;-33.398;-70.572;2023-11-25T06:12:07;25.52;;;5.60;;
74335;SDS011;62755;-33.398;-70.572;2023-11-25T06:14:37;18.83;;;5.20;;
74335;SDS011;62755;-33.398;-70.572;2023-11-25T06:17:06;25.13;;;5.75;;
74335;SDS011;62755;-33.398;-70.572;2023-11-25T06:19:36;25.00;;;5.32;;
74335;SDS011;62755;-33.398;-70.572;2023-11-25T06:22:10;22.67;;;5.03;;
74335;SDS011;62755;-33.398;-70.572;2023-11-25T06:24:39;23.35;;;5.30;;
74335;SDS011;62755;-33.398;-70.572;2023-11-25T06:27:09;21.05;;;5.68;;
74335;SDS011;62755;-33.398;-70.572;2023-11-25T06:29:38;28.95;;;5.93;;
74335;SDS011;62755;-33.398;-70.572;2023-11-25T06:32:07;24.08;;;5.93;;
74335;SDS011;62755;-33.398;-70.572;2023-11-25T06:34:39;22.10;;;5.90;;
74335;SDS011;62755;-33.398;-70.572;2023-11-25T06:37:08;21.23;;;5.55;;
74335;SDS011;62755;-33.398;-70.572;2023-11-25T06:39:38;22.58;;;5.50;;
74335;SDS011;62755;-33.398;-70.572;2023-11-25T06:42:07;25.45;;;5.85;;
74335;SDS011;62755;-33.398;-70.572;2023-11-25T06:44:36;24.85;;;5.95;;
74335;SDS011;62755;-33.398;-70.572;2023-11-25T06:47:06;25.33;;;5.80;;
74335;SDS011;62755;-33.398;-70.572;2023-11-25T06:49:37;29.33;;;6.25;;
74335;SDS011;62755;-33.398;-70.572;2023-11-25T06:52:10;22.75;;;5.80;;
74335;SDS011;62755;-33.398;-70.572;2023-11-25T06:54:40;21.30;;;5.45;;
74335;SDS011;62755;-33.398;-70.572;2023-11-25T06:57:09;21.33;;;5.90;;
74335;SDS011;62755;-33.398;-70.572;2023-11-25T06:59:39;23.25;;;6.22;;
74335;SDS011;62755;-33.398;-70.572;2023-11-25T07:02:11;22.10;;;6.45;;
74335;SDS011;62755;-33.398;-70.572;2023-11-25T07:04:42;27.38;;;6.32;;
74335;SDS011;62755;-33.398;-70.572;2023-11-25T07:07:11;26.00;;;6.18;;
74335;SDS011;62755;-33.398;-70.572;2023-11-25T07:09:41;26.30;;;6.55;;
74335;SDS011;62755;-33.398;-70.572;2023-11-25T07:12:11;22.13;;;6.05;;
74335;SDS011;62755;-33.398;-70.572;2023-11-25T07:14:41;20.10;;;6.22;;
74335;SDS011;62755;-33.398;-70.572;2023-11-25T07:17:10;24.58;;;6.18;;
74335;SDS011;62755;-33.398;-70.572;2023-11-25T07:19:40;23.70;;;5.95;;
74335;SDS011;62755;-33.398;-70.572;2023-11-25T07:22:11;22.27;;;6.18;;
74335;SDS011;62755;-33.398;-70.572;2023-11-25T07:24:41;19.75;;;5.57;;
74335;SDS011;62755;-33.398;-70.572;2023-11-25T07:27:12;22.15;;;6.82;;
74335;SDS011;62755;-33.398;-70.572;2023-11-25T07:29:44;25.08;;;7.10;;
74335;SDS011;62755;-33.398;-70.572;2023-11-25T07:32:15;26.45;;;6.80;;
74335;SDS011;62755;-33.398;-70.572;2023-11-25T07:34:46;23.63;;;6.60;;
74335;SDS011;62755;-33.398;-70.572;2023-11-25T07:37:15;20.42;;;5.63;;
74335;SDS011;62755;-33.398;-70.572;2023-11-25T07:39:45;26.40;;;6.80;;
74335;SDS011;62755;-33.398;-70.572;2023-11-25T07:42:14;21.98;;;5.32;;
74335;SDS011;62755;-33.398;-70.572;2023-11-25T07:44:44;21.63;;;6.60;;
74335;SDS011;62755;-33.398;-70.572;2023-11-25T07:47:13;25.02;;;6.35;;
74335;SDS011;62755;-33.398;-70.572;2023-11-25T07:49:42;28.10;;;6.15;;
74335;SDS011;62755;-33.398;-70.572;2023-11-25T07:52:14;21.80;;;6.28;;
74335;SDS011;62755;-33.398;-70.572;2023-11-25T07:54:43;22.02;;;6.07;;
74335;SDS011;62755;-33.398;-70.572;2023-11-25T07:57:12;25.02;;;6.55;;
74335;SDS011;62755;-33.398;-70.572;2023-11-25T07:59:42;24.70;;;6.05;;
74335;SDS011;62755;-33.398;-70.572;2023-11-25T08:02:11;19.73;;;6.07;;
74335;SDS011;62755;-33.398;-70.572;2023-11-25T08:04:41;25.55;;;6.38;;
74335;SDS011;62755;-33.398;-70.572;2023-11-25T08:07:10;16.70;;;6.22;;
74335;SDS011;62755;-33.398;-70.572;2023-11-25T08:09:42;23.17;;;5.80;;
74335;SDS011;62755;-33.398;-70.572;2023-11-25T08:12:11;25.90;;;5.88;;
74335;SDS011;62755;-33.398;-70.572;2023-11-25T08:14:41;20.67;;;6.38;;
74335;SDS011;62755;-33.398;-70.572;2023-11-25T08:17:10;21.38;;;6.20;;
74335;SDS011;62755;-33.398;-70.572;2023-11-25T08:19:39;21.42;;;6.50;;
74335;SDS011;62755;-33.398;-70.572;2023-11-25T08:22:08;19.17;;;6.68;;
74335;SDS011;62755;-33.398;-70.572;2023-11-25T08:24:39;24.70;;;7.20;;
74335;SDS011;62755;-33.398;-70.572;2023-11-25T08:27:09;28.10;;;6.82;;
74335;SDS011;62755;-33.398;-70.572;2023-11-25T08:29:39;27.40;;;7.35;;
74335;SDS011;62755;-33.398;-70.572;2023-11-25T08:32:08;25.75;;;7.20;;
74335;SDS011;62755;-33.398;-70.572;2023-11-25T08:34:39;22.55;;;6.88;;
74335;SDS011;62755;-33.398;-70.572;2023-11-25T08:37:08;35.13;;;6.68;;
74335;SDS011;62755;-33.398;-70.572;2023-11-25T08:39:39;31.38;;;7.22;;
74335;SDS011;62755;-33.398;-70.572;2023-11-25T08:42:08;26.67;;;7.43;;
74335;SDS011;62755;-33.398;-70.572;2023-11-25T08:44:40;22.80;;;7.18;;
74335;SDS011;62755;-33.398;-70.572;2023-11-25T08:47:11;24.85;;;7.22;;
74335;SDS011;62755;-33.398;-70.572;2023-11-25T08:49:40;27.05;;;7.25;;
74335;SDS011;62755;-33.398;-70.572;2023-11-25T08:52:10;22.70;;;6.90;;
74335;SDS011;62755;-33.398;-70.572;2023-11-25T08:54:41;24.10;;;7.03;;
74335;SDS011;62755;-33.398;-70.572;2023-11-25T08:57:15;24.23;;;7.50;;
74335;SDS011;62755;-33.398;-70.572;2023-11-25T08:59:44;27.48;;;7.35;;
74335;SDS011;62755;-33.398;-70.572;2023-11-25T09:02:14;24.65;;;6.68;;
74335;SDS011;62755;-33.398;-70.572;2023-11-25T09:04:48;24.90;;;7.38;;
74335;SDS011;62755;-33.398;-70.572;2023-11-25T09:07:18;18.95;;;7.38;;
74335;SDS011;62755;-33.398;-70.572;2023-11-25T09:09:49;24.10;;;7.75;;
74335;SDS011;62755;-33.398;-70.572;2023-11-25T09:12:19;24.33;;;7.53;;
74335;SDS011;62755;-33.398;-70.572;2023-11-25T09:14:48;22.45;;;7.03;;
74335;SDS011;62755;-33.398;-70.572;2023-11-25T09:17:17;20.90;;;6.65;;
74335;SDS011;62755;-33.398;-70.572;2023-11-25T09:19:47;22.52;;;6.95;;
74335;SDS011;62755;-33.398;-70.572;2023-11-25T09:22:16;23.98;;;6.88;;
74335;SDS011;62755;-33.398;-70.572;2023-11-25T09:24:45;20.33;;;6.50;;
74335;SDS011;62755;-33.398;-70.572;2023-11-25T09:27:16;27.10;;;7.05;;
74335;SDS011;62755;-33.398;-70.572;2023-11-25T09:29:46;31.27;;;6.57;;
74335;SDS011;62755;-33.398;-70.572;2023-11-25T09:32:15;23.15;;;6.32;;
74335;SDS011;62755;-33.398;-70.572;2023-11-25T09:34:45;22.67;;;6.65;;
74335;SDS011;62755;-33.398;-70.572;2023-11-25T09:37:15;26.83;;;6.50;;
74335;SDS011;62755;-33.398;-70.572;2023-11-25T09:39:44;26.52;;;6.65;;
74335;SDS011;62755;-33.398;-70.572;2023-11-25T09:42:13;22.85;;;6.82;;
74335;SDS011;62755;-33.398;-70.572;2023-11-25T09:44:45;30.67;;;7.10;;
74335;SDS011;62755;-33.398;-70.572;2023-11-25T09:47:16;25.13;;;6.97;;
74335;SDS011;62755;-33.398;-70.572;2023-11-25T09:49:46;24.60;;;6.53;;
74335;SDS011;62755;-33.398;-70.572;2023-11-25T09:52:15;23.70;;;6.75;;
74335;SDS011;62755;-33.398;-70.572;2023-11-25T09:54:48;24.25;;;7.03;;
74335;SDS011;62755;-33.398;-70.572;2023-11-25T09:57:25;20.48;;;5.85;;
74335;SDS011;62755;-33.398;-70.572;2023-11-25T09:59:58;23.83;;;5.75;;
74335;SDS011;62755;-33.398;-70.572;2023-11-25T10:02:31;30.13;;;6.43;;
74335;SDS011;62755;-33.398;-70.572;2023-11-25T10:05:03;19.73;;;6.70;;
74335;SDS011;62755;-33.398;-70.572;2023-11-25T10:07:35;30.33;;;6.82;;
74335;SDS011;62755;-33.398;-70.572;2023-11-25T10:10:04;28.73;;;6.63;;
74335;SDS011;62755;-33.398;-70.572;2023-11-25T10:12:36;32.42;;;6.78;;
74335;SDS011;62755;-33.398;-70.572;2023-11-25T10:15:09;23.50;;;7.97;;
74335;SDS011;62755;-33.398;-70.572;2023-11-25T10:17:39;18.92;;;6.47;;
74335;SDS011;62755;-33.398;-70.572;2023-11-25T10:20:12;20.60;;;6.15;;
74335;SDS011;62755;-33.398;-70.572;2023-11-25T10:22:45;21.40;;;6.80;;
74335;SDS011;62755;-33.398;-70.572;2023-11-25T10:25:16;24.25;;;7.10;;
74335;SDS011;62755;-33.398;-70.572;2023-11-25T10:27:47;22.17;;;7.30;;
74335;SDS011;62755;-33.398;-70.572;2023-11-25T10:30:17;22.15;;;6.50;;
74335;SDS011;62755;-33.398;-70.572;2023-11-25T10:32:47;25.95;;;7.55;;
74335;SDS011;62755;-33.398;-70.572;2023-11-25T10:35:21;21.13;;;7.45;;
74335;SDS011;62755;-33.398;-70.572;2023-11-25T10:37:52;25.50;;;7.63;;
74335;SDS011;62755;-33.398;-70.572;2023-11-25T10:40:21;21.08;;;7.50;;
74335;SDS011;62755;-33.398;-70.572;2023-11-25T10:42:52;20.58;;;7.47;;
74335;SDS011;62755;-33.398;-70.572;2023-11-25T10:45:22;38.90;;;7.60;;
74335;SDS011;62755;-33.398;-70.572;2023-11-25T10:47:53;23.20;;;9.80;;
74335;SDS011;62755;-33.398;-70.572;2023-11-25T10:50:23;29.05;;;9.18;;
74335;SDS011;62755;-33.398;-70.572;2023-11-25T10:52:55;28.77;;;10.13;;
74335;SDS011;62755;-33.398;-70.572;2023-11-25T10:55:25;25.65;;;8.23;;
74335;SDS011;62755;-33.398;-70.572;2023-11-25T10:57:58;25.92;;;8.55;;
74335;SDS011;62755;-33.398;-70.572;2023-11-25T11:00:29;28.33;;;8.20;;
74335;SDS011;62755;-33.398;-70.572;2023-11-25T11:02:59;35.05;;;9.05;;
74335;SDS011;62755;-33.398;-70.572;2023-11-25T11:05:32;27.17;;;8.82;;
74335;SDS011;62755;-33.398;-70.572;2023-11-25T11:08:11;27.08;;;9.27;;
74335;SDS011;62755;-33.398;-70.572;2023-11-25T11:10:50;32.35;;;9.50;;
74335;SDS011;62755;-33.398;-70.572;2023-11-25T11:13:25;24.08;;;8.77;;
74335;SDS011;62755;-33.398;-70.572;2023-11-25T11:16:02;32.38;;;9.48;;
74335;SDS011;62755;-33.398;-70.572;2023-11-25T11:18:35;28.70;;;8.73;;
74335;SDS011;62755;-33.398;-70.572;2023-11-25T11:21:07;27.02;;;9.18;;
74335;SDS011;62755;-33.398;-70.572;2023-11-25T11:23:37;36.95;;;9.48;;
74335;SDS011;62755;-33.398;-70.572;2023-11-25T11:26:11;28.77;;;9.15;;
74335;SDS011;62755;-33.398;-70.572;2023-11-25T11:29:00;24.88;;;10.48;;
74335;SDS011;62755;-33.398;-70.572;2023-11-25T11:31:46;25.45;;;9.38;;
74335;SDS011;62755;-33.398;-70.572;2023-11-25T11:34:26;27.92;;;9.73;;
74335;SDS011;62755;-33.398;-70.572;2023-11-25T11:36:56;22.10;;;9.90;;
74335;SDS011;62755;-33.398;-70.572;2023-11-25T11:39:32;26.92;;;10.32;;
74335;SDS011;62755;-33.398;-70.572;2023-11-25T11:42:24;34.83;;;11.70;;
74335;SDS011;62755;-33.398;-70.572;2023-11-25T11:44:57;30.30;;;11.20;;
74335;SDS011;62755;-33.398;-70.572;2023-11-25T11:47:37;33.63;;;11.80;;
74335;SDS011;62755;-33.398;-70.572;2023-11-25T11:50:07;41.05;;;12.88;;
74335;SDS011;62755;-33.398;-70.572;2023-11-25T11:52:43;31.60;;;11.85;;
74335;SDS011;62755;-33.398;-70.572;2023-11-25T11:58:04;34.03;;;12.45;;
74335;SDS011;62755;-33.398;-70.572;2023-11-25T12:03:34;32.78;;;12.02;;
74335;SDS011;62755;-33.398;-70.572;2023-11-25T12:06:05;31.35;;;12.77;;
74335;SDS011;62755;-33.398;-70.572;2023-11-25T12:08:34;35.22;;;13.18;;
74335;SDS011;62755;-33.398;-70.572;2023-11-25T12:11:04;35.45;;;13.13;;
74335;SDS011;62755;-33.398;-70.572;2023-11-25T12:13:34;32.35;;;13.07;;
74335;SDS011;62755;-33.398;-70.572;2023-11-25T12:16:06;35.35;;;14.07;;
74335;SDS011;62755;-33.398;-70.572;2023-11-25T12:18:36;31.65;;;13.63;;
74335;SDS011;62755;-33.398;-70.572;2023-11-25T12:21:06;30.73;;;12.98;;
74335;SDS011;62755;-33.398;-70.572;2023-11-25T12:23:36;30.08;;;14.13;;
74335;SDS011;62755;-33.398;-70.572;2023-11-25T12:26:05;34.40;;;15.68;;
74335;SDS011;62755;-33.398;-70.572;2023-11-25T12:28:40;38.47;;;15.68;;
74335;SDS011;62755;-33.398;-70.572;2023-11-25T12:31:12;40.70;;;15.18;;
74335;SDS011;62755;-33.398;-70.572;2023-11-25T12:33:41;40.88;;;16.33;;
74335;SDS011;62755;-33.398;-70.572;2023-11-25T12:36:10;29.92;;;15.55;;
74335;SDS011;62755;-33.398;-70.572;2023-11-25T12:38:40;33.70;;;15.18;;
74335;SDS011;62755;-33.398;-70.572;2023-11-25T12:41:08;39.97;;;16.50;;
74335;SDS011;62755;-33.398;-70.572;2023-11-25T12:46:37;39.55;;;17.60;;
74335;SDS011;62755;-33.398;-70.572;2023-11-25T12:49:20;49.10;;;19.58;;
74335;SDS011;62755;-33.398;-70.572;2023-11-25T12:51:50;47.17;;;22.90;;
74335;SDS011;62755;-33.398;-70.572;2023-11-25T12:54:21;53.38;;;22.67;;
74335;SDS011;62755;-33.398;-70.572;2023-11-25T12:56:50;84.03;;;43.92;;
74335;SDS011;62755;-33.398;-70.572;2023-11-25T12:59:22;47.78;;;22.52;;
74335;SDS011;62755;-33.398;-70.572;2023-11-25T13:01:56;58.15;;;31.13;;
74335;SDS011;62755;-33.398;-70.572;2023-11-25T13:04:32;58.92;;;28.88;;
74335;SDS011;62755;-33.398;-70.572;2023-11-25T13:07:02;74.20;;;37.08;;
74335;SDS011;62755;-33.398;-70.572;2023-11-25T13:09:32;105.35;;;51.97;;
74335;SDS011;62755;-33.398;-70.572;2023-11-25T13:12:05;85.18;;;42.75;;
74335;SDS011;62755;-33.398;-70.572;2023-11-25T13:14:35;69.40;;;33.42;;
74335;SDS011;62755;-33.398;-70.572;2023-11-25T13:17:06;68.15;;;33.95;;
74335;SDS011;62755;-33.398;-70.572;2023-11-25T13:19:35;66.78;;;31.17;;
74335;SDS011;62755;-33.398;-70.572;2023-11-25T13:22:05;64.32;;;30.17;;
74335;SDS011;62755;-33.398;-70.572;2023-11-25T13:24:34;60.28;;;30.10;;
74335;SDS011;62755;-33.398;-70.572;2023-11-25T13:27:04;72.97;;;38.25;;
74335;SDS011;62755;-33.398;-70.572;2023-11-25T13:29:33;70.28;;;31.35;;
74335;SDS011;62755;-33.398;-70.572;2023-11-25T13:32:03;74.93;;;34.13;;
74335;SDS011;62755;-33.398;-70.572;2023-11-25T13:34:34;73.43;;;36.35;;
74335;SDS011;62755;-33.398;-70.572;2023-11-25T13:37:04;68.32;;;33.05;;
74335;SDS011;62755;-33.398;-70.572;2023-11-25T13:39:33;59.47;;;30.42;;
74335;SDS011;62755;-33.398;-70.572;2023-11-25T13:42:03;57.83;;;30.23;;
74335;SDS011;62755;-33.398;-70.572;2023-11-25T13:44:33;66.50;;;34.00;;
74335;SDS011;62755;-33.398;-70.572;2023-11-25T13:47:03;64.45;;;30.92;;
74335;SDS011;62755;-33.398;-70.572;2023-11-25T13:49:34;61.90;;;30.10;;
74335;SDS011;62755;-33.398;-70.572;2023-11-25T13:52:04;62.38;;;31.55;;
74335;SDS011;62755;-33.398;-70.572;2023-11-25T13:54:34;67.07;;;29.00;;
74335;SDS011;62755;-33.398;-70.572;2023-11-25T13:57:05;56.10;;;28.40;;
74335;SDS011;62755;-33.398;-70.572;2023-11-25T13:59:35;60.65;;;28.40;;
74335;SDS011;62755;-33.398;-70.572;2023-11-25T14:02:05;56.72;;;26.70;;
74335;SDS011;62755;-33.398;-70.572;2023-11-25T14:04:38;57.30;;;28.65;;
74335;SDS011;62755;-33.398;-70.572;2023-11-25T14:07:08;56.95;;;29.08;;
74335;SDS011;62755;-33.398;-70.572;2023-11-25T14:09:37;54.83;;;27.30;;
74335;SDS011;62755;-33.398;-70.572;2023-11-25T14:12:07;60.72;;;25.70;;
74335;SDS011;62755;-33.398;-70.572;2023-11-25T14:14:36;47.08;;;26.55;;
74335;SDS011;62755;-33.398;-70.572;2023-11-25T14:17:06;48.60;;;24.98;;
74335;SDS011;62755;-33.398;-70.572;2023-11-25T14:19:39;52.70;;;25.52;;
74335;SDS011;62755;-33.398;-70.572;2023-11-25T14:22:11;51.42;;;23.70;;
74335;SDS011;62755;-33.398;-70.572;2023-11-25T14:24:41;43.85;;;24.17;;